KWRI/WRI METAR and TAF weather

Enter ICAO airport designator
Station Type Date Time Source
KWRI METAR 2022/01/26 13:56 UTC NOAA

KWRI 261356Z AUTO 35007KT 10SM CLR M04/M15 A3036 RMK AO2 SLP282 T10431150 $


Station Type Date Time Source
KWRI Decoded METAR 2022/01/26 13:56 UTC NOAA

Mcguire Air Force Base, NJ, United States (KWRI) 40-01N 074-36W
Jan 26, 2022 - 08:56 AM EST / 2022.01.26 1356 UTC
Wind: from the N (350 degrees) at 8 MPH (7 KT):0
Visibility: 10 mile(s):0
Sky conditions: clear
Temperature: 24.3 F (-4.3 C)
Windchill: 15 F (-9 C):1
Dew Point: 5.0 F (-15.0 C)
Relative Humidity: 43%
Pressure (altimeter): 30.36 in. Hg (1028 hPa)
ob: KWRI 261356Z AUTO 35007KT 10SM CLR M04/M15 A3036 RMK AO2 SLP282 T10431150
cycle: 14

Station Type Date Time Source
KWRI TAF 2022/01/26 10:59 UTC NOAA

TAF KWRI 261000Z 2610/2716 33008KT 9999 FEW040 SCT250 QNH3024INS
BECMG 2613/2614 33010G18KT 9999 FEW050 QNH3031INS
BECMG 2623/2624 VRB04KT 9999 SKC QNH3039INS
BECMG 2712/2713 20007KT 9999 FEW250 QNH3043INS TX03/2620Z TNM08/2610Z

Example: see airport list